Time;durP1;ratioP1;P1;durP2;ratioP2;P2;SDS_P1;SDS_P2;PMS_P1;PMS_P2;Temp;Humidity;BMP_temperature;BMP_pressure;BME280_temperature;BME280_humidity;BME280_pressure;Samples;Min_cycle;Max_cycle;Signal;HPM_P1;HPM_P2
2022/01/28 00:00:32;;;;;;;5.87;2.87;;;14.80;56.70;16.20;101946.00;;;;5027175;28;20230;-49
2022/01/28 00:03:05;;;;;;;5.20;2.77;;;14.80;56.50;16.20;101943.00;;;;5026670;28;20273;-49
2022/01/28 00:05:31;;;;;;;5.20;2.60;;;14.60;56.90;16.10;101956.00;;;;5027654;28;20201;-49
2022/01/28 00:07:57;;;;;;;7.43;2.90;;;14.60;57.30;16.10;101965.00;;;;5026951;28;20201;-50
2022/01/28 00:10:25;;;;;;;5.87;2.70;;;14.40;56.70;16.00;101966.00;;;;5034412;28;20167;-49
2022/01/28 00:15:26;;;;;;;8.83;2.90;;;14.20;57.10;15.90;101978.00;;;;5056408;28;20904;-49
2022/01/28 00:37:37;;;;;;;5.27;2.63;;;13.90;58.00;15.70;102019.00;;;;5054477;28;20173;-48
2022/01/28 00:40:00;;;;;;;6.63;2.80;;;13.90;58.20;15.60;102028.00;;;;5054264;28;20265;-49
2022/01/28 00:42:25;;;;;;;6.40;2.90;;;13.70;57.90;15.50;102020.00;;;;5052929;28;20194;-48
2022/01/28 00:44:51;;;;;;;6.80;2.93;;;13.60;58.30;15.40;102054.00;;;;5054597;28;20175;-48
2022/01/28 00:47:17;;;;;;;5.17;2.73;;;13.00;58.70;15.30;102048.00;;;;5054403;28;20181;-49
2022/01/28 00:49:42;;;;;;;6.77;3.00;;;13.30;58.90;15.20;102052.00;;;;5053774;28;20695;-49
2022/01/28 00:52:08;;;;;;;7.20;3.00;;;13.30;59.00;15.20;102049.00;;;;5050816;28;20186;-49
2022/01/28 00:54:34;;;;;;;8.53;3.50;;;13.40;58.20;15.20;102069.00;;;;5054864;28;20384;-48
2022/01/28 00:56:59;;;;;;;8.00;2.90;;;13.40;58.20;15.20;102061.00;;;;5054224;28;20174;-49
2022/01/28 00:59:25;;;;;;;5.70;2.80;;;13.60;58.60;15.20;102061.00;;;;5052735;28;20631;-49
2022/01/28 01:01:51;;;;;;;8.03;2.93;;;13.80;58.20;15.20;102063.00;;;;5054703;28;20225;-54
2022/01/28 01:04:17;;;;;;;6.47;2.60;;;13.80;56.70;15.20;102064.00;;;;5053721;28;20174;-49
2022/01/28 01:06:43;;;;;;;5.70;2.80;;;13.80;57.30;15.20;102066.00;;;;5052752;28;20359;-49
2022/01/28 01:09:09;;;;;;;6.97;2.90;;;13.50;57.80;15.20;102065.00;;;;5049247;28;20607;-48
2022/01/28 01:11:35;;;;;;;5.63;2.63;;;13.70;57.90;15.20;102068.00;;;;5053485;28;20197;-49
2022/01/28 01:14:00;;;;;;;4.40;2.87;;;13.70;57.90;15.20;102080.00;;;;5054013;28;20178;-49
2022/01/28 01:16:32;;;;;;;4.93;2.80;;;13.80;57.90;15.20;102077.00;;;;5051003;28;20462;-49
2022/01/28 01:21:30;;;;;;;5.80;2.90;;;13.60;57.50;15.10;102083.00;;;;5049725;28;20200;-49
2022/01/28 01:23:58;;;;;;;7.43;3.00;;;13.50;57.70;15.10;102101.00;;;;5049030;28;20167;-49
2022/01/28 01:26:33;;;;;;;5.07;2.73;;;13.60;58.20;15.20;102100.00;;;;5053639;28;20174;-49
2022/01/28 01:28:58;;;;;;;6.63;2.70;;;13.80;58.00;15.20;102103.00;;;;5053466;28;20193;-49
2022/01/28 01:31:24;;;;;;;5.23;2.87;;;13.80;57.30;15.20;102106.00;;;;5053521;28;20712;-48
2022/01/28 01:34:09;;;;;;;5.93;2.70;;;13.60;57.50;15.20;102109.00;;;;5051841;28;20181;-49
2022/01/28 01:36:35;;;;;;;5.63;2.63;;;13.70;57.50;15.10;102119.00;;;;5050302;28;20170;-48
2022/01/28 01:39:02;;;;;;;6.77;2.80;;;13.60;57.10;15.10;102105.00;;;;5055394;28;20902;-49
2022/01/28 01:41:39;;;;;;;6.70;2.97;;;13.60;58.10;15.10;102111.00;;;;5055651;28;20194;-49
2022/01/28 01:44:13;;;;;;;8.17;3.17;;;13.70;57.90;15.10;102108.00;;;;5053739;28;20232;-48
2022/01/28 01:52:06;;;;;;;7.37;3.10;;;13.60;58.20;15.00;102118.00;;;;5013437;28;20347;-48
2022/01/28 01:54:37;;;;;;;7.73;3.00;;;13.70;57.60;15.00;102038.00;;;;5011927;28;20523;-49
2022/01/28 01:57:03;;;;;;;6.90;2.80;;;13.70;57.70;15.10;102109.00;;;;5012701;28;20190;-49
2022/01/28 01:59:28;;;;;;;6.50;2.70;;;13.70;57.40;15.10;102133.00;;;;5012701;28;20202;-49
2022/01/28 02:01:56;;;;;;;5.00;2.63;;;13.80;57.80;15.10;102122.00;;;;5013497;28;20192;-49
2022/01/28 02:04:22;;;;;;;7.43;3.00;;;13.80;57.00;15.10;102131.00;;;;5012938;28;20358;-49
2022/01/28 02:06:47;;;;;;;7.73;3.10;;;13.80;57.10;15.20;102127.00;;;;5012456;28;20171;-49
2022/01/28 02:09:13;;;;;;;6.77;2.70;;;13.70;56.60;15.10;102119.00;;;;4995195;28;20191;-50
2022/01/28 02:11:42;;;;;;;7.27;2.90;;;13.80;57.10;15.10;102125.00;;;;5013040;28;20176;-49
2022/01/28 02:14:07;;;;;;;4.30;2.40;;;13.80;57.60;15.10;102116.00;;;;5013345;28;20180;-50
2022/01/28 02:16:33;;;;;;;5.10;2.53;;;13.70;57.90;15.10;102120.00;;;;5028222;28;20171;-49
2022/01/28 02:18:59;;;;;;;5.70;2.90;;;13.60;57.40;15.10;102125.00;;;;5012272;28;20226;-49
2022/01/28 02:21:24;;;;;;;5.97;2.70;;;13.60;57.80;15.10;102143.00;;;;5012310;28;20216;-48
2022/01/28 02:23:56;;;;;;;6.23;2.70;;;13.60;57.50;15.10;102157.00;;;;5013255;28;20218;-49
2022/01/28 02:26:22;;;;;;;5.30;2.87;;;13.70;57.70;15.10;102156.00;;;;5012354;28;20634;-48
2022/01/28 02:28:52;;;;;;;6.53;3.00;;;13.80;57.10;15.10;102160.00;;;;5012763;28;20222;-49
2022/01/28 02:31:22;;;;;;;6.27;2.97;;;13.80;56.90;15.10;102157.00;;;;5011991;28;20238;-48
2022/01/28 02:33:49;;;;;;;6.00;2.63;;;13.70;57.30;15.10;102160.00;;;;5011363;28;20180;-49
2022/01/28 02:36:15;;;;;;;4.40;2.23;;;13.80;57.60;15.10;102169.00;;;;5012474;28;20176;-49
2022/01/28 02:38:41;;;;;;;6.67;2.77;;;13.80;57.10;15.10;102176.00;;;;5012507;28;20226;-49
2022/01/28 02:41:07;;;;;;;5.33;2.70;;;13.60;56.80;15.10;102181.00;;;;5012500;28;20206;-49
2022/01/28 02:46:11;;;;;;;5.20;2.73;;;13.60;57.20;15.10;102181.00;;;;5012623;28;20393;-49
2022/01/28 02:48:40;;;;;;;7.10;2.87;;;13.70;57.60;15.10;102191.00;;;;5012981;28;20643;-50
2022/01/28 02:51:14;;;;;;;5.10;2.80;;;13.70;57.30;15.10;102185.00;;;;5012190;28;20180;-50
2022/01/28 02:53:43;;;;;;;5.00;2.77;;;13.70;57.00;15.00;102184.00;;;;5012444;28;20171;-49
2022/01/28 02:56:18;;;;;;;6.00;2.70;;;13.60;57.00;15.00;102180.00;;;;5012063;28;20178;-48
2022/01/28 02:58:44;;;;;;;5.50;2.57;;;13.70;57.30;15.00;102177.00;;;;5012271;28;20202;-50
2022/01/28 03:01:13;;;;;;;6.53;2.90;;;13.80;57.30;14.70;102192.00;;;;5011749;28;20226;-48
2022/01/28 03:03:40;;;;;;;4.17;2.40;;;13.70;56.50;15.00;102191.00;;;;5012572;28;20646;-49
2022/01/28 03:06:06;;;;;;;4.27;2.50;;;13.60;57.10;15.00;102198.00;;;;5012279;28;20584;-49
2022/01/28 03:08:33;;;;;;;4.93;2.70;;;13.40;57.30;15.00;102197.00;;;;5012814;28;20192;-49
2022/01/28 03:13:35;;;;;;;5.13;2.70;;;13.60;57.30;15.00;102203.00;;;;5012316;28;20172;-48
2022/01/28 03:16:12;;;;;;;4.47;2.50;;;13.60;57.10;14.90;102190.00;;;;5011449;28;20513;-49
2022/01/28 03:18:50;;;;;;;7.03;2.70;;;13.60;57.50;14.90;102201.00;;;;5012136;28;20199;-50
2022/01/28 03:24:00;;;;;;;7.53;2.80;;;13.30;57.40;14.80;102199.00;;;;5012130;28;20227;-49
2022/01/28 03:26:28;;;;;;;5.20;2.33;;;13.30;57.20;14.80;102197.00;;;;5011707;28;20453;-49
2022/01/28 03:28:53;;;;;;;5.30;2.53;;;13.30;57.80;14.80;102209.00;;;;5010345;28;20218;-49
2022/01/28 03:31:19;;;;;;;5.40;2.70;;;13.40;57.30;14.80;102212.00;;;;5011587;28;20176;-49
2022/01/28 03:33:45;;;;;;;4.37;2.40;;;13.50;57.60;14.80;102213.00;;;;5011834;28;20191;-48
2022/01/28 03:36:12;;;;;;;3.60;2.10;;;13.60;57.20;14.80;102220.00;;;;5011312;28;20540;-49
2022/01/28 03:38:38;;;;;;;5.60;2.60;;;13.60;57.10;14.80;102224.00;;;;5011417;28;20198;-48
2022/01/28 03:41:06;;;;;;;5.60;2.57;;;13.70;57.00;14.80;102198.00;;;;5010394;28;20192;-49
2022/01/28 03:43:31;;;;;;;3.93;2.37;;;13.70;57.00;14.80;102225.00;;;;5013393;28;20167;-49
2022/01/28 03:45:57;;;;;;;5.07;2.57;;;13.60;57.10;14.80;102243.00;;;;5015954;28;20195;-49
2022/01/28 03:48:23;;;;;;;5.83;2.63;;;13.60;56.70;14.80;102242.00;;;;5016654;28;20203;-49
2022/01/28 03:50:51;;;;;;;3.93;2.50;;;13.50;56.20;14.80;102242.00;;;;5016207;28;20502;-50
2022/01/28 03:53:17;;;;;;;4.83;2.77;;;13.40;57.20;14.80;102246.00;;;;5030466;28;20179;-50
2022/01/28 03:55:42;;;;;;;6.93;2.90;;;13.40;57.00;14.80;102254.00;;;;5030150;28;20182;-48
2022/01/28 03:58:08;;;;;;;6.30;2.50;;;13.30;56.20;14.70;102254.00;;;;5014828;28;20682;-48
2022/01/28 04:00:34;;;;;;;5.53;2.63;;;13.10;57.90;14.70;102259.00;;;;5031128;28;20176;-49
2022/01/28 04:03:08;;;;;;;4.83;2.33;;;13.30;57.60;14.70;102262.00;;;;5014723;28;20195;-48
2022/01/28 04:13:31;;;;;;;5.20;2.47;;;13.60;57.10;14.70;102282.00;;;;5014995;28;20170;-49
2022/01/28 04:18:23;;;;;;;3.50;2.20;;;13.60;57.00;14.70;102283.00;;;;5016217;28;20204;-48
2022/01/28 04:20:48;;;;;;;3.90;2.50;;;13.50;57.00;14.70;102292.00;;;;5014972;28;20190;-50
2022/01/28 04:23:14;;;;;;;3.53;2.40;;;13.60;57.00;14.70;102289.00;;;;5032433;28;20200;-51
2022/01/28 04:25:40;;;;;;;4.47;2.57;;;13.50;57.20;14.70;102292.00;;;;5032671;28;20172;-49
2022/01/28 04:28:05;;;;;;;4.73;2.50;;;13.50;57.00;14.70;102285.00;;;;5019842;28;20676;-49
2022/01/28 04:30:31;;;;;;;4.77;2.40;;;13.40;57.10;14.70;102287.00;;;;5015363;28;20176;-49
2022/01/28 04:32:57;;;;;;;4.90;2.40;;;13.50;57.10;14.70;102294.00;;;;5013704;28;20186;-50
2022/01/28 04:35:23;;;;;;;5.07;2.50;;;13.50;57.10;14.70;102299.00;;;;5013667;28;20287;-49
2022/01/28 04:40:31;;;;;;;4.93;2.60;;;13.40;57.40;14.70;102299.00;;;;5015105;28;20180;-48
2022/01/28 04:43:10;;;;;;;5.80;2.47;;;13.40;57.30;14.60;102296.00;;;;5015450;28;20203;-51
2022/01/28 04:45:56;;;;;;;5.70;2.50;;;13.30;57.20;14.60;102300.00;;;;5020601;28;20218;-49
2022/01/28 04:48:36;;;;;;;4.00;2.60;;;13.40;57.10;14.60;102306.00;;;;5024969;28;20257;-48
2022/01/28 04:51:15;;;;;;;4.93;2.37;;;13.40;57.10;14.60;102315.00;;;;5014144;28;20195;-49
2022/01/28 04:54:04;;;;;;;5.13;2.70;;;13.40;57.10;14.60;102324.00;;;;5014602;28;20190;-48
2022/01/28 04:56:56;;;;;;;6.00;2.30;;;13.50;57.10;14.60;102317.00;;;;5014092;28;20741;-49
2022/01/28 04:59:56;;;;;;;4.50;2.20;;;13.50;57.10;14.30;102320.00;;;;5014003;28;20270;-49
2022/01/28 05:02:53;;;;;;;2.97;2.20;;;13.40;57.60;14.60;102322.00;;;;5014672;28;20245;-50
2022/01/28 05:08:33;;;;;;;4.33;2.30;;;13.40;57.10;14.50;102327.00;;;;5014669;28;20202;-50
2022/01/28 05:26:55;;;;;;;4.57;2.53;;;13.30;57.10;14.50;102336.00;;;;5033615;28;20151;-49
2022/01/28 05:29:21;;;;;;;3.87;2.33;;;13.30;57.20;14.50;102335.00;;;;5033163;28;20187;-49
2022/01/28 05:31:47;;;;;;;2.83;2.20;;;13.30;57.20;14.40;102339.00;;;;5033797;28;20307;-49
2022/01/28 05:34:14;;;;;;;4.40;2.40;;;13.30;57.20;14.40;102338.00;;;;5032821;28;20187;-48
2022/01/28 05:36:39;;;;;;;4.73;2.40;;;13.20;57.00;14.40;102348.00;;;;5032447;28;20163;-49
2022/01/28 05:39:05;;;;;;;4.17;2.20;;;13.20;57.20;14.40;102353.00;;;;5032392;28;20209;-49
2022/01/28 05:41:32;;;;;;;3.47;2.20;;;13.20;57.30;14.40;102345.00;;;;5031302;28;20365;-49
2022/01/28 05:43:57;;;;;;;8.03;2.40;;;13.20;57.20;14.40;102347.00;;;;5032620;28;20245;-49
2022/01/28 05:46:27;;;;;;;4.53;2.30;;;13.20;57.30;14.40;102373.00;;;;5032958;28;20574;-49
2022/01/28 05:48:53;;;;;;;3.63;2.30;;;13.20;57.20;14.40;102357.00;;;;5030921;28;20187;-48
2022/01/28 05:51:18;;;;;;;5.07;2.40;;;13.20;57.30;14.40;102351.00;;;;5031576;28;20175;-49
2022/01/28 05:53:44;;;;;;;3.97;2.20;;;13.20;57.30;14.40;102366.00;;;;5033114;28;20752;-49
2022/01/28 05:56:10;;;;;;;3.87;2.40;;;13.20;57.30;14.40;102371.00;;;;5032287;28;20174;-50
2022/01/28 05:58:36;;;;;;;4.30;2.13;;;13.20;57.30;14.40;102372.00;;;;5032974;28;20214;-48
2022/01/28 06:01:01;;;;;;;4.40;2.30;;;13.20;58.00;14.40;102378.00;;;;5031509;28;20187;-49
2022/01/28 06:03:27;;;;;;;7.23;2.70;;;13.20;58.00;14.30;102366.00;;;;5030779;28;20176;-47
2022/01/28 06:05:53;;;;;;;4.87;2.33;;;13.20;58.20;14.30;102360.00;;;;5026689;28;20193;-48
2022/01/28 06:08:18;;;;;;;4.60;2.50;;;13.20;57.80;14.30;102374.00;;;;5028416;28;20322;-47
2022/01/28 06:10:44;;;;;;;6.53;2.63;;;13.20;57.80;14.30;102389.00;;;;5027851;28;20550;-48
2022/01/28 06:13:11;;;;;;;6.03;2.43;;;13.30;58.00;14.30;102390.00;;;;5037812;28;20189;-48
2022/01/28 06:15:42;;;;;;;4.50;2.40;;;13.30;57.80;14.30;102386.00;;;;5046323;28;20667;-49
2022/01/28 06:18:11;;;;;;;5.93;2.20;;;13.20;57.70;14.30;102389.00;;;;5046280;28;20681;-48
2022/01/28 06:20:37;;;;;;;5.73;2.23;;;13.20;57.70;14.30;102398.00;;;;5047483;28;20209;-48
2022/01/28 06:23:03;;;;;;;3.83;2.10;;;13.20;57.50;14.20;102408.00;;;;5047609;28;20198;-48
2022/01/28 06:25:29;;;;;;;4.43;2.23;;;13.20;57.60;14.20;102328.00;;;;5047982;28;20684;-48
2022/01/28 06:27:54;;;;;;;5.20;2.27;;;13.20;57.60;14.20;102409.00;;;;5047455;28;20597;-49
2022/01/28 06:30:21;;;;;;;5.07;2.13;;;13.20;57.50;14.20;102417.00;;;;5046675;28;20649;-47
2022/01/28 06:32:47;;;;;;;5.40;2.20;;;13.20;57.60;14.20;102413.00;;;;5048185;28;20166;-47
2022/01/28 06:35:13;;;;;;;4.13;2.10;;;13.20;57.70;14.20;102423.00;;;;5047427;28;20943;-48
2022/01/28 06:37:43;;;;;;;3.47;2.17;;;13.20;57.60;14.20;102427.00;;;;5047769;28;20273;-48
2022/01/28 06:40:14;;;;;;;6.17;2.07;;;13.20;57.70;14.20;102422.00;;;;5047341;28;20213;-48
2022/01/28 06:42:39;;;;;;;3.97;2.20;;;13.10;57.60;14.20;102436.00;;;;5047448;28;20236;-49
2022/01/28 06:45:06;;;;;;;4.10;2.27;;;13.10;57.80;14.20;102433.00;;;;5047878;28;20174;-48
2022/01/28 06:47:32;;;;;;;4.73;2.30;;;13.10;57.80;14.10;102423.00;;;;5048053;28;20170;-49
2022/01/28 06:49:58;;;;;;;3.70;2.13;;;13.10;57.60;14.10;102430.00;;;;5047284;28;20185;-46
2022/01/28 06:52:23;;;;;;;3.60;2.03;;;13.10;57.60;14.10;102424.00;;;;5046942;28;20546;-48
2022/01/28 06:54:49;;;;;;;4.90;2.23;;;13.10;57.80;14.10;102423.00;;;;5047258;28;20177;-47
2022/01/28 06:57:15;;;;;;;4.53;1.93;;;13.10;57.80;14.10;102432.00;;;;5047458;28;20186;-48
2022/01/28 06:59:41;;;;;;;3.20;2.00;;;13.10;57.80;14.10;102432.00;;;;5047115;28;20183;-48
2022/01/28 07:02:07;;;;;;;3.50;2.10;;;13.10;57.90;14.10;102436.00;;;;5046434;28;20833;-48
2022/01/28 07:04:33;;;;;;;5.27;2.00;;;13.10;57.70;14.10;102435.00;;;;5047284;28;20258;-48
2022/01/28 07:06:58;;;;;;;2.97;1.90;;;13.10;57.90;14.10;102436.00;;;;5047291;28;20171;-48
2022/01/28 07:09:24;;;;;;;3.43;1.93;;;13.10;57.70;14.00;102449.00;;;;5046640;28;20194;-48
2022/01/28 07:11:50;;;;;;;3.87;2.00;;;13.00;57.70;14.00;102446.00;;;;5046739;28;20266;-48
2022/01/28 07:14:17;;;;;;;2.70;1.80;;;13.00;57.70;14.00;102443.00;;;;5046941;28;20174;-49
2022/01/28 07:16:43;;;;;;;3.10;2.00;;;13.00;57.70;14.00;102440.00;;;;5047076;28;20165;-48
2022/01/28 07:19:09;;;;;;;3.73;2.03;;;13.00;57.70;14.00;102436.00;;;;5047136;28;20194;-48
2022/01/28 07:21:35;;;;;;;3.90;2.00;;;13.00;57.70;14.00;102449.00;;;;5046806;28;20244;-47
2022/01/28 07:24:01;;;;;;;3.03;2.00;;;13.00;57.60;14.00;102453.00;;;;5047068;28;20820;-48
2022/01/28 07:26:27;;;;;;;4.17;2.20;;;13.00;57.60;14.00;102451.00;;;;5047034;28;20178;-48
2022/01/28 07:28:53;;;;;;;2.63;1.90;;;13.00;57.70;14.00;102459.00;;;;5045792;28;20195;-47
2022/01/28 07:31:19;;;;;;;2.63;2.10;;;13.00;57.60;14.00;102459.00;;;;5046719;28;20224;-49
2022/01/28 07:33:45;;;;;;;3.97;2.00;;;13.00;57.60;13.90;102463.00;;;;5046797;28;20566;-46
2022/01/28 07:36:12;;;;;;;3.87;2.10;;;13.00;57.60;13.90;102473.00;;;;5046770;28;20702;-48
2022/01/28 07:38:37;;;;;;;2.47;2.00;;;13.00;57.60;13.90;102488.00;;;;5046523;28;20186;-49
2022/01/28 07:41:05;;;;;;;3.23;2.20;;;12.90;57.50;13.90;102494.00;;;;5045853;28;20755;-47
2022/01/28 07:43:31;;;;;;;2.10;1.90;;;12.90;57.50;13.90;102488.00;;;;5045612;28;20178;-48
2022/01/28 07:45:57;;;;;;;2.57;2.00;;;12.90;57.70;13.90;102500.00;;;;5045473;28;20257;-48
2022/01/28 07:48:22;;;;;;;3.13;2.20;;;12.90;57.60;13.90;102493.00;;;;5046627;28;20197;-49
2022/01/28 07:50:48;;;;;;;2.10;1.90;;;12.90;57.60;13.90;102507.00;;;;5046143;28;20387;-49
2022/01/28 07:53:16;;;;;;;3.47;2.20;;;12.90;57.60;13.90;102499.00;;;;5045983;28;20200;-48
2022/01/28 07:55:43;;;;;;;2.37;2.00;;;12.90;57.60;13.90;102504.00;;;;5046164;28;20253;-47
2022/01/28 07:58:09;;;;;;;2.83;2.10;;;12.90;57.50;13.90;102420.00;;;;5046299;28;20293;-48
2022/01/28 08:00:34;;;;;;;2.93;1.90;;;12.90;57.50;13.80;102507.00;;;;5046010;28;20656;-48
2022/01/28 08:03:00;;;;;;;2.87;2.00;;;12.90;57.50;13.80;102504.00;;;;5048897;28;20216;-47
2022/01/28 08:05:26;;;;;;;2.17;1.97;;;12.90;57.50;13.70;102498.00;;;;5047685;28;20174;-47
2022/01/28 08:07:52;;;;;;;2.43;2.00;;;12.80;57.40;13.80;102517.00;;;;5046564;28;20202;-47
2022/01/28 08:10:19;;;;;;;3.63;2.10;;;12.80;57.50;13.80;102519.00;;;;5046174;28;20421;-48
2022/01/28 08:12:46;;;;;;;2.63;2.13;;;12.80;57.40;13.80;102515.00;;;;5044838;28;20316;-47
2022/01/28 08:15:12;;;;;;;2.77;1.90;;;12.80;57.40;13.80;102521.00;;;;5046647;28;20180;-49
2022/01/28 08:17:37;;;;;;;3.33;2.10;;;12.80;57.50;13.80;102521.00;;;;5046198;28;20186;-47
2022/01/28 08:20:04;;;;;;;2.30;1.93;;;12.80;58.40;13.80;102525.00;;;;5046251;28;20167;-48
2022/01/28 08:22:30;;;;;;;2.00;1.80;;;12.80;57.40;13.80;102534.00;;;;5046196;28;20201;-48
2022/01/28 08:24:56;;;;;;;2.40;1.97;;;12.80;57.50;13.80;102535.00;;;;5046048;28;20181;-48
2022/01/28 08:27:21;;;;;;;2.47;1.87;;;12.80;57.40;13.80;102517.00;;;;5046003;28;20163;-48
2022/01/28 08:29:47;;;;;;;2.87;2.03;;;12.80;57.40;13.80;102542.00;;;;5047675;28;20181;-47
2022/01/28 08:32:13;;;;;;;2.20;1.90;;;12.80;57.50;13.70;102546.00;;;;5049792;28;20179;-48
2022/01/28 08:34:38;;;;;;;2.37;1.77;;;12.80;57.40;13.70;102555.00;;;;5050225;28;20276;-48
2022/01/28 08:37:04;;;;;;;2.13;1.87;;;12.70;57.50;13.70;102558.00;;;;5049943;28;20162;-47
2022/01/28 08:39:31;;;;;;;2.73;2.10;;;12.80;57.50;13.70;102557.00;;;;5049574;28;20187;-48
2022/01/28 08:41:58;;;;;;;2.90;2.00;;;12.70;57.40;13.70;102564.00;;;;5048599;28;20197;-48
2022/01/28 08:44:24;;;;;;;2.40;1.77;;;12.70;57.30;13.70;102568.00;;;;5050072;28;20178;-48
2022/01/28 08:46:49;;;;;;;3.07;1.90;;;12.70;57.40;13.40;102561.00;;;;5050008;28;20166;-47
2022/01/28 08:49:15;;;;;;;2.37;1.80;;;12.70;57.40;13.70;102559.00;;;;5049578;28;20190;-48
2022/01/28 08:51:41;;;;;;;2.30;2.00;;;12.70;57.40;13.70;102568.00;;;;5049491;28;20166;-46
2022/01/28 08:54:06;;;;;;;2.13;1.90;;;12.70;57.30;13.70;102560.00;;;;5050046;28;20170;-47
2022/01/28 08:56:32;;;;;;;3.40;2.30;;;12.70;57.30;13.70;102560.00;;;;5048972;28;20534;-48
2022/01/28 08:58:58;;;;;;;2.27;1.90;;;12.70;57.30;13.70;102563.00;;;;5048106;28;20209;-48
2022/01/28 09:01:23;;;;;;;2.67;2.10;;;12.70;57.50;13.70;102562.00;;;;5049234;28;20191;-47
2022/01/28 09:03:51;;;;;;;2.23;1.87;;;12.70;57.50;13.70;102560.00;;;;5048362;28;20553;-48
2022/01/28 09:06:17;;;;;;;2.13;1.93;;;12.70;57.50;13.70;102565.00;;;;5048299;28;20182;-48
2022/01/28 09:08:44;;;;;;;2.53;2.00;;;12.70;57.50;13.70;102560.00;;;;5047469;28;20189;-50
2022/01/28 09:13:47;;;;;;;2.53;2.03;;;12.70;57.60;13.70;102559.00;;;;5049062;28;20155;-47
2022/01/28 09:16:13;;;;;;;2.77;2.10;;;12.70;57.50;13.70;102547.00;;;;5048145;28;20660;-48
2022/01/28 09:18:38;;;;;;;2.03;1.87;;;12.60;57.50;13.70;102548.00;;;;5033013;28;20207;-48
2022/01/28 09:21:04;;;;;;;2.40;1.80;;;12.70;57.60;13.60;102555.00;;;;5029931;28;20226;-48
2022/01/28 09:23:30;;;;;;;2.70;2.00;;;12.70;57.40;13.70;102559.00;;;;5029175;28;20199;-48
2022/01/28 09:25:55;;;;;;;1.93;1.80;;;12.70;57.60;13.70;102566.00;;;;5029192;28;20170;-48
2022/01/28 09:28:21;;;;;;;3.30;1.90;;;12.70;57.60;13.70;102555.00;;;;5011427;28;20557;-48
2022/01/28 09:30:47;;;;;;;2.60;2.00;;;12.90;57.70;13.80;102557.00;;;;5029215;28;20171;-48
2022/01/28 09:33:13;;;;;;;3.07;2.00;;;13.20;58.10;13.90;102560.00;;;;5029069;28;20201;-49
2022/01/28 09:35:41;;;;;;;3.23;2.17;;;13.50;57.10;14.00;102573.00;;;;5030211;28;20436;-47
2022/01/28 09:38:07;;;;;;;2.17;1.80;;;13.70;56.70;14.10;102578.00;;;;5029522;28;20207;-48
2022/01/28 09:40:32;;;;;;;4.07;2.03;;;13.80;56.60;14.20;102593.00;;;;5028920;28;20167;-47
2022/01/28 09:43:00;;;;;;;2.57;1.90;;;13.90;56.40;14.30;102582.00;;;;5029225;28;20202;-49
2022/01/28 09:45:25;;;;;;;2.87;1.83;;;14.00;56.40;14.40;102587.00;;;;5027507;28;20222;-48
2022/01/28 09:47:54;;;;;;;2.53;2.00;;;14.10;56.30;14.20;102598.00;;;;5028701;28;20226;-47
2022/01/28 09:50:21;;;;;;;4.03;1.90;;;14.20;56.20;14.60;102600.00;;;;5034948;28;20684;-47
2022/01/28 09:52:51;;;;;;;2.80;2.00;;;14.20;56.20;14.60;102599.00;;;;5048930;28;20400;-47
2022/01/28 09:55:18;;;;;;;3.23;2.20;;;14.30;56.30;14.70;102579.00;;;;5048093;28;20641;-47
2022/01/28 09:57:47;;;;;;;2.60;1.90;;;14.30;56.30;14.80;102584.00;;;;5048230;28;20206;-47
2022/01/28 10:00:13;;;;;;;2.37;1.97;;;14.40;56.40;14.80;102586.00;;;;5048122;28;20573;-48
2022/01/28 10:02:59;;;;;;;3.13;2.00;;;14.40;56.20;14.90;102585.00;;;;5048642;28;20210;-47
2022/01/28 10:05:34;;;;;;;2.87;1.70;;;14.40;56.20;14.90;102587.00;;;;5049656;28;20513;-47
2022/01/28 10:08:12;;;;;;;2.40;1.83;;;14.50;56.20;15.00;102601.00;;;;5047010;28;20264;-47
2022/01/28 10:11:15;;;;;;;3.03;1.90;;;14.50;56.50;15.00;102589.00;;;;5048638;28;20167;-47
2022/01/28 10:13:52;;;;;;;2.47;1.90;;;14.60;56.60;15.10;102590.00;;;;5048353;28;20165;-48
2022/01/28 10:16:28;;;;;;;5.10;1.97;;;14.70;56.80;15.10;102594.00;;;;5048233;28;20181;-49
2022/01/28 10:18:54;;;;;;;12.53;2.20;;;14.70;56.60;15.10;102593.00;;;;5048282;28;20197;-47
2022/01/28 10:21:31;;;;;;;6.53;2.10;;;14.70;56.60;15.20;102606.00;;;;5048128;28;20170;-49
2022/01/28 10:24:24;;;;;;;4.40;1.90;;;14.80;56.70;15.20;102595.00;;;;5048415;28;20861;-48
2022/01/28 10:26:59;;;;;;;4.30;2.00;;;14.80;56.70;15.20;102591.00;;;;5047765;28;20162;-48
2022/01/28 10:29:42;;;;;;;4.83;1.97;;;14.80;56.60;15.30;102597.00;;;;5024822;28;20221;-47
2022/01/28 10:32:15;;;;;;;3.93;1.90;;;15.00;56.70;15.40;102593.00;;;;5037087;28;20178;-48
2022/01/28 10:34:45;;;;;;;3.13;2.00;;;15.00;56.60;15.40;102599.00;;;;5034973;28;20221;-48
2022/01/28 10:37:17;;;;;;;3.20;1.87;;;15.00;56.70;15.50;102600.00;;;;5049207;28;20182;-50
2022/01/28 10:39:51;;;;;;;3.07;2.30;;;15.00;56.70;15.50;102596.00;;;;5048675;28;20159;-47
2022/01/28 10:42:33;;;;;;;3.17;2.00;;;15.10;56.70;15.50;102602.00;;;;5048981;28;20194;-48
2022/01/28 10:45:05;;;;;;;3.27;2.00;;;15.10;56.70;15.60;102598.00;;;;5047814;28;20582;-47
2022/01/28 10:47:35;;;;;;;2.27;1.80;;;15.10;56.70;15.60;102586.00;;;;5027982;28;20178;-47
2022/01/28 10:50:37;;;;;;;2.27;1.80;;;15.20;56.70;15.70;102589.00;;;;5029023;28;20178;-47
2022/01/28 10:53:17;;;;;;;2.97;2.00;;;15.20;56.60;15.70;102596.00;;;;4995802;28;20183;-49
2022/01/28 10:55:49;;;;;;;2.10;1.90;;;15.20;56.60;15.70;102593.00;;;;5028788;28;20292;-48
2022/01/28 10:58:19;;;;;;;3.00;1.73;;;15.30;56.70;15.70;102595.00;;;;5028552;28;20302;-47
2022/01/28 11:00:48;;;;;;;3.67;2.00;;;15.30;56.70;15.80;102594.00;;;;5009597;28;20191;-48
2022/01/28 11:03:16;;;;;;;2.80;1.60;;;15.30;57.00;15.80;102593.00;;;;5029374;28;20191;-48
2022/01/28 11:05:43;;;;;;;2.83;1.80;;;15.30;57.00;15.80;102589.00;;;;5046193;28;20177;-48
2022/01/28 11:08:12;;;;;;;3.17;2.10;;;15.40;57.10;15.90;102587.00;;;;5048413;28;20674;-48
2022/01/28 11:10:39;;;;;;;2.43;1.73;;;15.40;57.00;15.90;102592.00;;;;5048501;28;20166;-47
2022/01/28 11:13:05;;;;;;;2.90;1.70;;;15.40;56.90;16.00;102594.00;;;;5048577;28;20281;-48
2022/01/28 11:15:32;;;;;;;2.93;1.93;;;15.50;56.90;16.00;102589.00;;;;5047942;28;20174;-48
2022/01/28 11:17:59;;;;;;;2.20;1.90;;;15.50;56.90;16.00;102593.00;;;;5048209;28;20212;-48
2022/01/28 11:20:41;;;;;;;3.63;1.90;;;15.60;57.00;16.10;102581.00;;;;5048036;28;20174;-48
2022/01/28 11:23:30;;;;;;;2.40;1.70;;;15.60;57.00;16.10;102597.00;;;;5034136;28;20259;-47
2022/01/28 11:26:23;;;;;;;2.40;2.00;;;15.60;57.00;16.10;102608.00;;;;5027018;28;20516;-48
2022/01/28 11:28:51;;;;;;;2.53;1.90;;;15.70;57.00;16.20;102619.00;;;;5027280;28;20761;-48
2022/01/28 11:31:45;;;;;;;4.17;2.20;;;15.70;56.90;16.20;102605.00;;;;5028492;28;20559;-48
2022/01/28 11:34:18;;;;;;;1.90;1.60;;;15.70;56.90;16.20;102631.00;;;;5028723;28;20198;-49
2022/01/28 11:36:43;;;;;;;3.63;1.77;;;15.70;56.80;16.20;102613.00;;;;5027983;28;20592;-48
2022/01/28 11:39:29;;;;;;;1.87;1.67;;;15.70;56.80;16.20;102616.00;;;;5027770;28;20206;-49
2022/01/28 11:42:10;;;;;;;3.00;2.10;;;15.80;56.80;16.30;102614.00;;;;5041623;28;20595;-47
2022/01/28 11:44:50;;;;;;;2.27;1.73;;;15.80;56.80;16.30;102598.00;;;;5041981;28;20197;-48
2022/01/28 11:47:53;;;;;;;2.17;1.97;;;15.90;56.90;16.30;102589.00;;;;5028428;28;20170;-48
2022/01/28 11:50:22;;;;;;;2.83;1.70;;;15.90;56.80;16.30;102595.00;;;;5025907;28;20209;-48
2022/01/28 11:52:55;;;;;;;3.50;1.70;;;15.90;56.70;16.40;102608.00;;;;5032737;28;20677;-47
2022/01/28 11:55:21;;;;;;;2.83;1.73;;;15.90;56.70;16.40;102588.00;;;;5026802;28;20625;-47
2022/01/28 11:58:08;;;;;;;2.73;1.80;;;15.90;56.80;16.40;102581.00;;;;5028324;28;20218;-47
2022/01/28 12:00:44;;;;;;;2.13;1.80;;;16.00;56.90;16.50;102584.00;;;;5034542;28;20167;-48
2022/01/28 12:03:27;;;;;;;2.97;1.83;;;16.00;57.00;16.50;102583.00;;;;5039725;28;20197;-47
2022/01/28 12:06:07;;;;;;;2.23;1.87;;;16.00;57.10;16.50;102572.00;;;;5051851;28;20703;-48
2022/01/28 12:08:32;;;;;;;3.80;1.90;;;16.00;57.20;16.50;102492.00;;;;5051950;28;20281;-48